sensor_id;sensor_type;location;lat;lon;timestamp;pressure;altitude;pressure_sealevel;temperature;humidity
37878;BME280;23715;53.652;8.516;2023-02-20T00:04:45;102309.80;;;6.88;100.00
37878;BME280;23715;53.652;8.516;2023-02-20T00:09:44;102309.50;;;6.94;100.00
37878;BME280;23715;53.652;8.516;2023-02-20T00:14:44;102304.81;;;6.99;100.00
37878;BME280;23715;53.652;8.516;2023-02-20T00:19:44;102312.90;;;6.97;100.00
37878;BME280;23715;53.652;8.516;2023-02-20T00:24:43;102308.63;;;7.12;100.00
37878;BME280;23715;53.652;8.516;2023-02-20T00:29:43;102291.02;;;6.98;100.00
37878;BME280;23715;53.652;8.516;2023-02-20T00:34:43;102277.22;;;6.79;100.00
37878;BME280;23715;53.652;8.516;2023-02-20T00:39:44;102276.66;;;7.09;100.00
37878;BME280;23715;53.652;8.516;2023-02-20T00:44:43;102272.11;;;7.11;100.00
37878;BME280;23715;53.652;8.516;2023-02-20T00:49:43;102257.73;;;7.14;100.00
37878;BME280;23715;53.652;8.516;2023-02-20T00:54:44;102262.60;;;7.14;100.00
37878;BME280;23715;53.652;8.516;2023-02-20T00:59:43;102251.73;;;7.09;100.00
37878;BME280;23715;53.652;8.516;2023-02-20T01:04:43;102246.52;;;6.97;100.00
37878;BME280;23715;53.652;8.516;2023-02-20T01:09:42;102253.14;;;7.07;100.00
37878;BME280;23715;53.652;8.516;2023-02-20T01:14:42;102250.98;;;7.15;100.00
37878;BME280;23715;53.652;8.516;2023-02-20T01:19:42;102241.54;;;7.26;100.00
37878;BME280;23715;53.652;8.516;2023-02-20T01:24:42;102227.92;;;7.30;100.00
37878;BME280;23715;53.652;8.516;2023-02-20T01:29:45;102216.58;;;7.08;100.00
37878;BME280;23715;53.652;8.516;2023-02-20T01:34:45;102218.24;;;7.28;100.00
37878;BME280;23715;53.652;8.516;2023-02-20T01:39:45;102212.59;;;7.25;100.00
37878;BME280;23715;53.652;8.516;2023-02-20T01:44:46;102157.07;;;7.11;100.00
37878;BME280;23715;53.652;8.516;2023-02-20T01:49:50;102190.61;;;7.18;100.00
37878;BME280;23715;53.652;8.516;2023-02-20T01:54:52;102178.19;;;7.17;100.00
37878;BME280;23715;53.652;8.516;2023-02-20T01:59:51;102192.03;;;7.26;100.00
37878;BME280;23715;53.652;8.516;2023-02-20T02:04:52;102156.61;;;7.20;100.00
37878;BME280;23715;53.652;8.516;2023-02-20T02:10:03;102163.70;;;7.21;100.00
37878;BME280;23715;53.652;8.516;2023-02-20T02:14:59;102134.36;;;7.29;100.00
37878;BME280;23715;53.652;8.516;2023-02-20T02:20:14;102130.41;;;7.18;100.00
37878;BME280;23715;53.652;8.516;2023-02-20T02:41:02;102130.78;;;7.63;100.00
37878;BME280;23715;53.652;8.516;2023-02-20T02:46:10;102135.88;;;7.76;100.00
37878;BME280;23715;53.652;8.516;2023-02-20T02:51:07;102112.42;;;7.97;100.00
37878;BME280;23715;53.652;8.516;2023-02-20T02:56:08;102066.63;;;7.77;100.00
37878;BME280;23715;53.652;8.516;2023-02-20T03:01:20;102043.91;;;7.69;100.00
37878;BME280;23715;53.652;8.516;2023-02-20T03:06:23;102041.39;;;7.66;100.00
37878;BME280;23715;53.652;8.516;2023-02-20T03:11:23;102070.63;;;7.86;100.00
37878;BME280;23715;53.652;8.516;2023-02-20T03:16:26;102051.09;;;7.84;100.00
37878;BME280;23715;53.652;8.516;2023-02-20T03:21:25;102010.92;;;8.00;100.00
37878;BME280;23715;53.652;8.516;2023-02-20T03:26:29;101977.09;;;7.90;100.00
37878;BME280;23715;53.652;8.516;2023-02-20T03:31:42;101978.06;;;7.89;100.00
37878;BME280;23715;53.652;8.516;2023-02-20T03:36:47;101986.31;;;7.93;100.00
37878;BME280;23715;53.652;8.516;2023-02-20T03:42:06;101989.92;;;7.92;100.00
37878;BME280;23715;53.652;8.516;2023-02-20T03:47:26;101989.23;;;7.89;100.00
37878;BME280;23715;53.652;8.516;2023-02-20T03:52:28;101981.67;;;7.88;100.00
37878;BME280;23715;53.652;8.516;2023-02-20T03:57:33;101983.79;;;7.90;100.00
37878;BME280;23715;53.652;8.516;2023-02-20T04:02:31;101973.33;;;8.01;100.00
37878;BME280;23715;53.652;8.516;2023-02-20T04:07:36;101972.93;;;8.00;100.00
37878;BME280;23715;53.652;8.516;2023-02-20T04:12:37;101978.77;;;8.16;100.00
37878;BME280;23715;53.652;8.516;2023-02-20T04:18:04;101970.13;;;8.11;100.00
37878;BME280;23715;53.652;8.516;2023-02-20T04:22:40;101949.10;;;8.19;100.00
37878;BME280;23715;53.652;8.516;2023-02-20T04:27:40;101945.97;;;8.04;100.00
37878;BME280;23715;53.652;8.516;2023-02-20T04:32:42;101929.17;;;8.09;100.00
37878;BME280;23715;53.652;8.516;2023-02-20T04:37:43;101921.73;;;8.14;100.00
37878;BME280;23715;53.652;8.516;2023-02-20T04:42:43;101895.67;;;8.09;100.00
37878;BME280;23715;53.652;8.516;2023-02-20T04:47:43;101897.19;;;7.82;100.00
37878;BME280;23715;53.652;8.516;2023-02-20T04:52:44;101950.16;;;8.00;100.00
37878;BME280;23715;53.652;8.516;2023-02-20T04:57:45;101959.73;;;8.20;100.00
37878;BME280;23715;53.652;8.516;2023-02-20T05:02:44;101964.04;;;8.16;100.00
37878;BME280;23715;53.652;8.516;2023-02-20T05:07:44;101956.00;;;8.23;100.00
37878;BME280;23715;53.652;8.516;2023-02-20T05:12:44;101948.20;;;8.27;100.00
37878;BME280;23715;53.652;8.516;2023-02-20T05:17:43;101948.61;;;8.12;100.00
37878;BME280;23715;53.652;8.516;2023-02-20T05:22:46;101957.18;;;8.26;100.00
37878;BME280;23715;53.652;8.516;2023-02-20T05:27:45;101949.67;;;8.17;100.00
37878;BME280;23715;53.652;8.516;2023-02-20T05:32:45;101945.41;;;8.06;100.00
37878;BME280;23715;53.652;8.516;2023-02-20T05:37:44;101958.11;;;8.18;100.00
37878;BME280;23715;53.652;8.516;2023-02-20T05:42:44;101969.20;;;8.19;100.00
37878;BME280;23715;53.652;8.516;2023-02-20T05:47:43;101984.13;;;8.16;100.00
37878;BME280;23715;53.652;8.516;2023-02-20T05:52:42;102008.98;;;8.11;100.00
37878;BME280;23715;53.652;8.516;2023-02-20T05:57:42;102027.89;;;8.08;100.00
37878;BME280;23715;53.652;8.516;2023-02-20T06:02:41;102023.92;;;8.15;100.00
37878;BME280;23715;53.652;8.516;2023-02-20T06:07:44;102050.62;;;8.00;100.00
37878;BME280;23715;53.652;8.516;2023-02-20T06:12:45;102066.98;;;7.87;100.00
37878;BME280;23715;53.652;8.516;2023-02-20T06:17:45;102104.95;;;7.95;100.00
37878;BME280;23715;53.652;8.516;2023-02-20T06:22:45;102148.87;;;8.09;100.00
37878;BME280;23715;53.652;8.516;2023-02-20T06:27:46;102185.09;;;8.40;100.00
37878;BME280;23715;53.652;8.516;2023-02-20T06:32:45;102208.50;;;8.46;100.00
37878;BME280;23715;53.652;8.516;2023-02-20T06:37:45;102206.08;;;8.32;100.00
37878;BME280;23715;53.652;8.516;2023-02-20T06:42:44;102221.98;;;8.19;100.00
37878;BME280;23715;53.652;8.516;2023-02-20T06:47:44;102246.28;;;8.32;100.00
37878;BME280;23715;53.652;8.516;2023-02-20T06:52:43;102268.59;;;8.50;100.00
37878;BME280;23715;53.652;8.516;2023-02-20T06:57:43;102295.69;;;8.62;100.00
37878;BME280;23715;53.652;8.516;2023-02-20T07:02:42;102302.41;;;8.53;100.00
37878;BME280;23715;53.652;8.516;2023-02-20T07:07:42;102321.66;;;8.52;100.00
37878;BME280;23715;53.652;8.516;2023-02-20T07:12:41;102339.80;;;8.38;100.00
37878;BME280;23715;53.652;8.516;2023-02-20T07:17:41;102395.32;;;8.54;100.00
37878;BME280;23715;53.652;8.516;2023-02-20T07:22:48;102409.35;;;8.42;100.00
37878;BME280;23715;53.652;8.516;2023-02-20T07:27:41;102471.16;;;8.38;100.00
37878;BME280;23715;53.652;8.516;2023-02-20T07:32:40;102499.95;;;8.61;100.00
37878;BME280;23715;53.652;8.516;2023-02-20T07:37:40;102512.83;;;8.81;100.00
37878;BME280;23715;53.652;8.516;2023-02-20T07:42:39;102502.90;;;8.65;100.00
37878;BME280;23715;53.652;8.516;2023-02-20T07:47:46;102532.31;;;8.58;100.00
37878;BME280;23715;53.652;8.516;2023-02-20T07:52:46;102559.92;;;8.77;100.00
37878;BME280;23715;53.652;8.516;2023-02-20T07:57:46;102576.02;;;8.77;100.00
37878;BME280;23715;53.652;8.516;2023-02-20T08:02:46;102589.27;;;8.72;100.00
37878;BME280;23715;53.652;8.516;2023-02-20T08:07:46;102622.08;;;8.68;100.00
37878;BME280;23715;53.652;8.516;2023-02-20T08:12:46;102660.31;;;8.82;100.00
37878;BME280;23715;53.652;8.516;2023-02-20T08:17:46;102680.45;;;9.08;100.00
37878;BME280;23715;53.652;8.516;2023-02-20T08:22:46;102662.67;;;8.97;100.00
37878;BME280;23715;53.652;8.516;2023-02-20T08:27:47;102658.98;;;9.08;100.00
37878;BME280;23715;53.652;8.516;2023-02-20T08:32:47;102668.91;;;8.89;100.00
37878;BME280;23715;53.652;8.516;2023-02-20T08:37:46;102716.61;;;8.73;100.00
37878;BME280;23715;53.652;8.516;2023-02-20T08:42:48;102767.52;;;8.84;100.00
37878;BME280;23715;53.652;8.516;2023-02-20T08:47:47;102796.06;;;8.76;100.00
37878;BME280;23715;53.652;8.516;2023-02-20T08:52:47;102844.16;;;8.70;100.00
37878;BME280;23715;53.652;8.516;2023-02-20T08:57:46;102901.06;;;8.87;100.00
37878;BME280;23715;53.652;8.516;2023-02-20T09:02:46;102895.22;;;8.88;100.00
37878;BME280;23715;53.652;8.516;2023-02-20T09:07:45;102913.30;;;8.84;100.00
37878;BME280;23715;53.652;8.516;2023-02-20T09:12:45;102935.34;;;8.91;100.00
37878;BME280;23715;53.652;8.516;2023-02-20T09:17:50;102928.63;;;8.91;100.00
37878;BME280;23715;53.652;8.516;2023-02-20T09:22:46;102933.11;;;9.01;100.00
37878;BME280;23715;53.652;8.516;2023-02-20T09:27:47;102909.91;;;8.99;100.00
37878;BME280;23715;53.652;8.516;2023-02-20T09:32:48;102910.89;;;9.07;100.00
37878;BME280;23715;53.652;8.516;2023-02-20T09:37:48;102856.00;;;8.85;100.00
37878;BME280;23715;53.652;8.516;2023-02-20T09:53:01;102855.81;;;9.17;100.00
37878;BME280;23715;53.652;8.516;2023-02-20T09:57:59;102809.80;;;9.16;100.00
37878;BME280;23715;53.652;8.516;2023-02-20T10:08:17;102763.28;;;9.07;100.00
37878;BME280;23715;53.652;8.516;2023-02-20T10:18:41;102768.30;;;9.32;100.00
37878;BME280;23715;53.652;8.516;2023-02-20T10:23:43;102724.50;;;9.04;100.00
37878;BME280;23715;53.652;8.516;2023-02-20T10:28:41;102722.02;;;9.18;100.00
37878;BME280;23715;53.652;8.516;2023-02-20T10:33:42;102682.06;;;9.30;100.00
37878;BME280;23715;53.652;8.516;2023-02-20T10:38:48;102669.02;;;9.57;100.00
37878;BME280;23715;53.652;8.516;2023-02-20T10:43:47;102591.83;;;9.61;100.00
37878;BME280;23715;53.652;8.516;2023-02-20T10:48:47;102514.22;;;9.38;100.00
37878;BME280;23715;53.652;8.516;2023-02-20T10:53:59;102497.38;;;9.52;100.00
37878;BME280;23715;53.652;8.516;2023-02-20T11:09:15;102395.22;;;9.70;100.00
37878;BME280;23715;53.652;8.516;2023-02-20T11:14:15;102331.52;;;9.72;100.00
37878;BME280;23715;53.652;8.516;2023-02-20T11:19:35;102259.70;;;9.60;100.00
37878;BME280;23715;53.652;8.516;2023-02-20T11:28:21;102234.19;;;9.60;100.00
37878;BME280;23715;53.652;8.516;2023-02-20T11:33:24;102135.88;;;9.57;100.00
37878;BME280;23715;53.652;8.516;2023-02-20T11:38:29;102107.77;;;9.63;100.00
37878;BME280;23715;53.652;8.516;2023-02-20T11:43:39;102061.81;;;9.67;100.00
37878;BME280;23715;53.652;8.516;2023-02-20T11:48:35;102018.95;;;9.44;100.00
37878;BME280;23715;53.652;8.516;2023-02-20T11:53:37;102008.21;;;9.51;100.00
37878;BME280;23715;53.652;8.516;2023-02-20T11:58:37;101986.73;;;9.66;100.00
37878;BME280;23715;53.652;8.516;2023-02-20T12:03:38;101956.02;;;9.63;100.00
37878;BME280;23715;53.652;8.516;2023-02-20T12:08:48;101923.70;;;9.64;100.00
37878;BME280;23715;53.652;8.516;2023-02-20T12:13:51;101911.22;;;9.63;100.00
37878;BME280;23715;53.652;8.516;2023-02-20T12:18:53;101892.07;;;9.82;100.00
37878;BME280;23715;53.652;8.516;2023-02-20T12:24:12;101858.81;;;9.77;100.00
37878;BME280;23715;53.652;8.516;2023-02-20T12:40:02;101829.60;;;9.66;100.00
37878;BME280;23715;53.652;8.516;2023-02-20T12:45:17;101830.88;;;9.60;100.00
37878;BME280;23715;53.652;8.516;2023-02-20T12:50:36;101846.09;;;9.60;100.00
37878;BME280;23715;53.652;8.516;2023-02-20T13:11:14;101844.45;;;9.71;100.00
37878;BME280;23715;53.652;8.516;2023-02-20T13:16:16;101846.77;;;9.90;100.00
37878;BME280;23715;53.652;8.516;2023-02-20T13:21:27;101847.86;;;10.01;100.00
37878;BME280;23715;53.652;8.516;2023-02-20T13:36:48;101838.09;;;9.72;100.00
37878;BME280;23715;53.652;8.516;2023-02-20T13:41:57;101838.34;;;9.82;100.00
37878;BME280;23715;53.652;8.516;2023-02-20T13:57:53;101866.70;;;9.93;100.00
37878;BME280;23715;53.652;8.516;2023-02-20T14:02:54;101850.73;;;9.85;100.00
37878;BME280;23715;53.652;8.516;2023-02-20T14:07:55;101857.06;;;9.56;100.00
37878;BME280;23715;53.652;8.516;2023-02-20T14:18:29;101870.67;;;9.81;100.00
37878;BME280;23715;53.652;8.516;2023-02-20T14:23:28;101865.10;;;9.64;100.00
37878;BME280;23715;53.652;8.516;2023-02-20T14:28:31;101878.45;;;9.85;100.00
37878;BME280;23715;53.652;8.516;2023-02-20T14:33:32;101864.11;;;9.72;100.00
37878;BME280;23715;53.652;8.516;2023-02-20T14:39:02;101891.99;;;9.76;100.00
37878;BME280;23715;53.652;8.516;2023-02-20T14:44:10;101846.98;;;9.80;100.00
37878;BME280;23715;53.652;8.516;2023-02-20T14:49:14;101846.98;;;9.80;100.00
37878;BME280;23715;53.652;8.516;2023-02-20T14:54:23;101850.06;;;9.81;100.00
37878;BME280;23715;53.652;8.516;2023-02-20T14:59:29;101857.75;;;9.73;100.00
37878;BME280;23715;53.652;8.516;2023-02-20T15:04:31;101863.74;;;9.91;100.00
37878;BME280;23715;53.652;8.516;2023-02-20T15:09:40;101856.73;;;9.88;100.00
37878;BME280;23715;53.652;8.516;2023-02-20T15:14:42;101842.38;;;9.82;100.00
37878;BME280;23715;53.652;8.516;2023-02-20T15:19:43;101863.02;;;9.82;100.00
37878;BME280;23715;53.652;8.516;2023-02-20T15:24:43;101884.45;;;9.96;100.00
37878;BME280;23715;53.652;8.516;2023-02-20T15:29:45;101868.41;;;9.74;100.00
37878;BME280;23715;53.652;8.516;2023-02-20T15:34:48;101886.94;;;9.72;100.00
37878;BME280;23715;53.652;8.516;2023-02-20T15:39:50;101896.46;;;9.56;100.00
37878;BME280;23715;53.652;8.516;2023-02-20T15:44:50;101910.47;;;9.54;100.00
37878;BME280;23715;53.652;8.516;2023-02-20T15:49:51;101967.17;;;9.49;100.00
37878;BME280;23715;53.652;8.516;2023-02-20T15:54:53;101967.17;;;9.49;100.00
37878;BME280;23715;53.652;8.516;2023-02-20T15:59:54;101998.59;;;9.62;100.00
37878;BME280;23715;53.652;8.516;2023-02-20T16:04:55;102036.59;;;9.55;100.00
37878;BME280;23715;53.652;8.516;2023-02-20T16:09:55;102065.75;;;9.62;100.00
37878;BME280;23715;53.652;8.516;2023-02-20T16:14:56;102095.59;;;9.57;100.00
37878;BME280;23715;53.652;8.516;2023-02-20T16:19:57;102133.87;;;9.61;100.00
37878;BME280;23715;53.652;8.516;2023-02-20T16:24:57;102175.30;;;9.56;100.00
37878;BME280;23715;53.652;8.516;2023-02-20T16:29:57;102195.17;;;9.68;100.00
37878;BME280;23715;53.652;8.516;2023-02-20T16:34:58;102205.61;;;9.58;100.00
37878;BME280;23715;53.652;8.516;2023-02-20T16:39:58;102219.50;;;9.51;100.00
37878;BME280;23715;53.652;8.516;2023-02-20T16:45:19;102275.25;;;9.38;100.00
37878;BME280;23715;53.652;8.516;2023-02-20T16:50:05;102360.20;;;9.16;100.00
37878;BME280;23715;53.652;8.516;2023-02-20T16:55:15;102452.17;;;9.36;100.00
37878;BME280;23715;53.652;8.516;2023-02-20T17:00:12;102529.81;;;9.32;100.00
37878;BME280;23715;53.652;8.516;2023-02-20T17:05:11;102628.65;;;9.50;100.00
37878;BME280;23715;53.652;8.516;2023-02-20T17:10:12;102661.92;;;9.47;100.00
37878;BME280;23715;53.652;8.516;2023-02-20T17:15:15;102724.69;;;9.27;100.00
37878;BME280;23715;53.652;8.516;2023-02-20T17:20:22;102803.09;;;9.25;100.00
37878;BME280;23715;53.652;8.516;2023-02-20T17:25:24;102895.88;;;9.41;100.00
37878;BME280;23715;53.652;8.516;2023-02-20T17:30:25;102934.53;;;9.37;100.00
37878;BME280;23715;53.652;8.516;2023-02-20T17:35:25;102978.50;;;8.86;100.00
37878;BME280;23715;53.652;8.516;2023-02-20T17:40:25;103093.86;;;9.07;100.00
37878;BME280;23715;53.652;8.516;2023-02-20T17:45:25;103186.67;;;9.12;100.00
37878;BME280;23715;53.652;8.516;2023-02-20T17:50:25;103262.97;;;9.07;100.00
37878;BME280;23715;53.652;8.516;2023-02-20T17:55:26;103375.52;;;9.23;100.00
37878;BME280;23715;53.652;8.516;2023-02-20T18:00:26;103446.72;;;9.22;100.00
37878;BME280;23715;53.652;8.516;2023-02-20T18:05:27;103496.45;;;8.96;100.00
37878;BME280;23715;53.652;8.516;2023-02-20T18:10:27;103615.94;;;8.95;100.00
37878;BME280;23715;53.652;8.516;2023-02-20T18:15:35;103775.90;;;9.01;100.00
37878;BME280;23715;53.652;8.516;2023-02-20T18:20:35;103936.56;;;9.14;100.00
37878;BME280;23715;53.652;8.516;2023-02-20T18:25:36;104061.56;;;9.25;100.00
37878;BME280;23715;53.652;8.516;2023-02-20T18:30:36;104107.00;;;9.32;100.00
37878;BME280;23715;53.652;8.516;2023-02-20T18:35:36;104151.64;;;9.53;100.00
37878;BME280;23715;53.652;8.516;2023-02-20T18:40:36;104158.67;;;9.09;100.00
37878;BME280;23715;53.652;8.516;2023-02-20T18:45:36;104254.16;;;9.19;100.00
37878;BME280;23715;53.652;8.516;2023-02-20T18:50:36;104281.78;;;9.25;100.00
37878;BME280;23715;53.652;8.516;2023-02-20T18:55:36;104294.72;;;9.27;100.00
37878;BME280;23715;53.652;8.516;2023-02-20T19:00:36;104273.73;;;9.25;100.00
37878;BME280;23715;53.652;8.516;2023-02-20T19:05:38;104258.98;;;9.57;100.00
37878;BME280;23715;53.652;8.516;2023-02-20T19:10:38;104105.58;;;9.50;100.00
37878;BME280;23715;53.652;8.516;2023-02-20T19:15:39;104003.27;;;9.58;100.00
37878;BME280;23715;53.652;8.516;2023-02-20T19:20:38;103918.68;;;9.56;100.00
37878;BME280;23715;53.652;8.516;2023-02-20T19:25:38;103837.86;;;9.49;100.00
37878;BME280;23715;53.652;8.516;2023-02-20T19:30:39;103752.63;;;9.54;100.00
37878;BME280;23715;53.652;8.516;2023-02-20T19:35:39;103633.21;;;9.38;100.00
37878;BME280;23715;53.652;8.516;2023-02-20T19:40:39;103603.52;;;9.54;100.00
37878;BME280;23715;53.652;8.516;2023-02-20T19:45:39;103556.95;;;9.42;100.00
37878;BME280;23715;53.652;8.516;2023-02-20T19:50:40;103540.02;;;9.40;100.00
37878;BME280;23715;53.652;8.516;2023-02-20T19:55:41;103529.84;;;9.72;100.00
37878;BME280;23715;53.652;8.516;2023-02-20T20:00:41;103321.38;;;9.66;100.00
37878;BME280;23715;53.652;8.516;2023-02-20T20:05:41;103321.38;;;9.66;100.00
37878;BME280;23715;53.652;8.516;2023-02-20T20:10:42;103263.12;;;9.46;100.00
37878;BME280;23715;53.652;8.516;2023-02-20T20:15:42;103235.59;;;9.51;100.00
37878;BME280;23715;53.652;8.516;2023-02-20T20:20:42;103242.98;;;9.36;100.00
37878;BME280;23715;53.652;8.516;2023-02-20T20:25:43;103289.20;;;9.54;100.00
37878;BME280;23715;53.652;8.516;2023-02-20T20:30:43;103319.34;;;9.07;100.00
37878;BME280;23715;53.652;8.516;2023-02-20T20:35:43;103460.61;;;9.33;100.00
37878;BME280;23715;53.652;8.516;2023-02-20T20:40:43;103531.48;;;9.17;100.00
37878;BME280;23715;53.652;8.516;2023-02-20T20:45:43;103616.13;;;9.27;100.00
37878;BME280;23715;53.652;8.516;2023-02-20T20:50:43;103624.66;;;9.27;100.00
37878;BME280;23715;53.652;8.516;2023-02-20T20:55:43;103608.84;;;9.31;100.00
37878;BME280;23715;53.652;8.516;2023-02-20T21:00:43;103611.34;;;9.49;100.00
37878;BME280;23715;53.652;8.516;2023-02-20T21:05:43;103522.69;;;9.49;100.00
37878;BME280;23715;53.652;8.516;2023-02-20T21:10:43;103436.62;;;9.40;100.00
37878;BME280;23715;53.652;8.516;2023-02-20T21:15:43;103381.11;;;9.29;100.00
37878;BME280;23715;53.652;8.516;2023-02-20T21:20:43;103358.08;;;9.45;100.00
37878;BME280;23715;53.652;8.516;2023-02-20T21:25:44;103302.27;;;9.42;100.00
37878;BME280;23715;53.652;8.516;2023-02-20T21:30:44;103241.75;;;9.33;100.00
37878;BME280;23715;53.652;8.516;2023-02-20T21:35:45;103224.83;;;9.21;100.00
37878;BME280;23715;53.652;8.516;2023-02-20T21:40:46;103210.95;;;9.52;100.00
37878;BME280;23715;53.652;8.516;2023-02-20T21:45:46;103139.36;;;9.71;100.00
37878;BME280;23715;53.652;8.516;2023-02-20T21:50:48;103044.53;;;9.78;100.00
37878;BME280;23715;53.652;8.516;2023-02-20T21:55:49;102911.48;;;9.61;100.00
37878;BME280;23715;53.652;8.516;2023-02-20T22:00:49;102808.19;;;9.40;100.00
37878;BME280;23715;53.652;8.516;2023-02-20T22:05:49;102785.81;;;9.31;100.00
37878;BME280;23715;53.652;8.516;2023-02-20T22:10:49;102789.22;;;9.34;100.00
37878;BME280;23715;53.652;8.516;2023-02-20T22:16:07;102756.45;;;9.28;100.00
37878;BME280;23715;53.652;8.516;2023-02-20T22:21:26;102715.83;;;9.08;100.00
37878;BME280;23715;53.652;8.516;2023-02-20T22:26:43;102732.29;;;9.28;100.00
37878;BME280;23715;53.652;8.516;2023-02-20T22:32:02;102707.63;;;9.11;100.00
37878;BME280;23715;53.652;8.516;2023-02-20T22:37:20;102707.25;;;9.18;100.00
37878;BME280;23715;53.652;8.516;2023-02-20T22:42:39;102697.00;;;9.35;100.00
37878;BME280;23715;53.652;8.516;2023-02-20T22:47:57;102648.95;;;9.55;100.00
37878;BME280;23715;53.652;8.516;2023-02-20T22:53:15;102557.81;;;9.44;100.00
37878;BME280;23715;53.652;8.516;2023-02-20T22:58:33;102512.66;;;9.34;100.00
37878;BME280;23715;53.652;8.516;2023-02-20T23:03:54;102437.75;;;9.30;100.00
37878;BME280;23715;53.652;8.516;2023-02-20T23:09:13;102407.30;;;9.38;100.00
37878;BME280;23715;53.652;8.516;2023-02-20T23:14:31;102363.60;;;9.11;100.00
37878;BME280;23715;53.652;8.516;2023-02-20T23:19:49;102375.23;;;9.28;100.00
37878;BME280;23715;53.652;8.516;2023-02-20T23:25:08;102371.49;;;9.14;100.00
37878;BME280;23715;53.652;8.516;2023-02-20T23:30:26;102408.02;;;9.17;100.00
37878;BME280;23715;53.652;8.516;2023-02-20T23:35:44;102448.42;;;9.23;100.00
37878;BME280;23715;53.652;8.516;2023-02-20T23:41:04;102484.16;;;9.07;100.00
37878;BME280;23715;53.652;8.516;2023-02-20T23:46:22;102557.16;;;8.88;100.00
37878;BME280;23715;53.652;8.516;2023-02-20T23:51:40;102680.50;;;8.81;100.00
37878;BME280;23715;53.652;8.516;2023-02-20T23:56:59;102823.60;;;8.90;100.00
